createdAt,value
2018-07-11T00:00:14.016Z,71.39
2018-07-11T00:02:42.649Z,72.05
2018-07-11T00:05:11.105Z,72.09
2018-07-11T00:07:39.629Z,72.07
2018-07-11T00:10:08.187Z,72.26
2018-07-11T00:12:36.792Z,71.94
2018-07-11T00:15:05.567Z,71.98
2018-07-11T00:17:34.529Z,72.15
2018-07-11T00:20:02.983Z,72.18
2018-07-11T00:22:31.693Z,72.53
2018-07-11T00:25:00.150Z,72.39
2018-07-11T00:27:28.604Z,72.87
2018-07-11T00:29:57.254Z,72.60
2018-07-11T00:32:25.902Z,73.01
2018-07-11T00:34:54.397Z,73.14
2018-07-11T00:37:22.920Z,73.25
2018-07-11T00:39:51.445Z,72.61
2018-07-11T00:42:19.865Z,73.36
2018-07-11T00:44:48.255Z,73.74
2018-07-11T00:47:16.819Z,73.23
2018-07-11T00:49:54.781Z,73.16
2018-07-11T00:52:23.259Z,73.31
2018-07-11T00:54:51.889Z,73.19
2018-07-11T00:57:20.471Z,73.10
2018-07-11T00:59:49.013Z,73.54
2018-07-11T01:02:17.564Z,73.20
2018-07-11T01:04:46.049Z,73.36
2018-07-11T01:07:14.621Z,73.87
2018-07-11T01:09:49.807Z,73.41
2018-07-11T01:12:19.307Z,74.07
2018-07-11T01:14:48.397Z,74.30
2018-07-11T01:17:22.077Z,74.45
2018-07-11T01:19:51.030Z,74.00
2018-07-11T01:22:19.538Z,73.91
2018-07-11T01:24:48.030Z,74.66
2018-07-11T01:27:16.747Z,74.43
2018-07-11T01:29:45.389Z,74.74
2018-07-11T01:32:13.894Z,74.52
2018-07-11T01:34:42.519Z,75.08
2018-07-11T01:37:10.975Z,75.35
2018-07-11T01:39:39.495Z,75.28
2018-07-11T01:42:08.012Z,75.27
2018-07-11T01:44:36.477Z,75.45
2018-07-11T01:47:04.946Z,75.63
2018-07-11T01:49:33.505Z,75.62
2018-07-11T01:52:13.177Z,75.96
2018-07-11T01:54:41.681Z,75.99
2018-07-11T01:57:10.261Z,76.51
2018-07-11T01:59:38.735Z,76.71
2018-07-11T02:02:07.190Z,76.64
2018-07-11T02:04:37.814Z,75.90
2018-07-11T02:07:06.305Z,76.74
2018-07-11T02:09:34.879Z,76.59
2018-07-11T02:12:03.843Z,76.32
2018-07-11T02:14:32.322Z,76.64
2018-07-11T02:17:00.785Z,76.51
2018-07-11T02:19:38.651Z,76.96
2018-07-11T02:22:07.244Z,76.91
2018-07-11T02:24:35.723Z,76.77
2018-07-11T02:27:04.197Z,77.12
2018-07-11T02:29:37.747Z,76.94
2018-07-11T02:32:06.233Z,76.82
2018-07-11T02:34:35.487Z,77.10
2018-07-11T02:37:04.929Z,77.80
2018-07-11T02:39:47.186Z,77.78
2018-07-11T02:42:15.642Z,77.72
2018-07-11T02:44:44.357Z,77.84
2018-07-11T02:47:18.107Z,77.78
2018-07-11T02:52:44.155Z,77.83
2018-07-11T02:55:12.685Z,77.33
2018-07-11T02:57:41.114Z,78.03
2018-07-11T03:00:09.588Z,77.86
2018-07-11T03:02:38.749Z,78.79
2018-07-11T03:05:07.231Z,78.58
2018-07-11T03:07:35.769Z,78.31
2018-07-11T03:10:04.567Z,78.34
2018-07-11T03:12:33.279Z,77.68
2018-07-11T03:15:01.823Z,77.70
2018-07-11T03:17:30.394Z,77.50
2018-07-11T03:19:59.090Z,77.93
2018-07-11T03:22:27.685Z,77.87
2018-07-11T03:24:56.382Z,77.42
2018-07-11T03:27:24.938Z,77.92
2018-07-11T03:29:53.508Z,77.61
2018-07-11T03:32:22.006Z,77.39
2018-07-11T03:34:50.502Z,77.87
2018-07-11T03:37:18.933Z,77.92
2018-07-11T03:39:56.932Z,78.59
2018-07-11T03:42:25.447Z,78.43
2018-07-11T03:44:54.499Z,78.11
2018-07-11T03:47:23.058Z,78.47
2018-07-11T03:49:51.610Z,78.00
2018-07-11T03:52:20.190Z,78.14
2018-07-11T03:54:48.947Z,77.86
2018-07-11T03:57:17.369Z,77.22
2018-07-11T03:59:45.931Z,77.17
2018-07-11T04:02:14.657Z,76.77
2018-07-11T04:04:43.214Z,76.23
2018-07-11T04:07:11.797Z,75.98
2018-07-11T04:09:40.307Z,76.14
2018-07-11T04:12:08.885Z,76.25
2018-07-11T04:14:37.315Z,76.02
2018-07-11T04:17:06.085Z,76.02
2018-07-11T04:19:34.633Z,77.39
2018-07-11T04:22:03.203Z,77.93
2018-07-11T04:24:31.727Z,78.19
2018-07-11T04:27:00.565Z,78.72
2018-07-11T04:29:29.163Z,79.30
2018-07-11T04:31:57.865Z,79.53
2018-07-11T04:34:26.442Z,79.58
2018-07-11T04:36:55.828Z,78.91
2018-07-11T04:39:24.491Z,79.11
2018-07-11T04:41:53.045Z,78.67
2018-07-11T04:44:21.527Z,78.98
2018-07-11T04:46:50.247Z,79.25
2018-07-11T04:49:18.873Z,79.83
2018-07-11T04:51:47.869Z,80.10
2018-07-11T04:54:16.541Z,81.16
2018-07-11T04:56:45.006Z,81.92
2018-07-11T04:59:13.718Z,81.71
2018-07-11T05:01:42.185Z,80.42
2018-07-11T05:04:10.706Z,80.19
2018-07-11T05:06:39.235Z,80.32
2018-07-11T05:09:07.739Z,80.97
2018-07-11T05:11:37.085Z,80.30
2018-07-11T05:14:05.662Z,79.58
2018-07-11T05:16:34.117Z,78.93
2018-07-11T05:19:07.683Z,78.75
2018-07-11T05:21:36.253Z,78.21
2018-07-11T05:24:04.817Z,79.40
2018-07-11T05:26:33.946Z,79.71
2018-07-11T05:29:02.993Z,79.66
2018-07-11T05:31:31.507Z,79.37
2018-07-11T05:34:00.378Z,77.47
2018-07-11T05:36:29.150Z,77.51
2018-07-11T05:38:57.747Z,77.41
2018-07-11T05:41:26.265Z,76.74
2018-07-11T05:43:54.867Z,76.46
2018-07-11T05:46:23.437Z,76.93
2018-07-11T05:48:54.675Z,76.09
2018-07-11T05:51:28.143Z,76.51
2018-07-11T05:53:56.648Z,77.34
2018-07-11T05:56:25.175Z,76.75
2018-07-11T05:58:53.745Z,76.74
2018-07-11T06:01:22.229Z,76.03
2018-07-11T06:03:50.747Z,75.82
2018-07-11T06:06:19.399Z,74.86
2018-07-11T06:08:47.835Z,74.83
2018-07-11T06:11:23.059Z,75.23
2018-07-11T06:13:52.443Z,74.29
2018-07-11T06:16:21.070Z,72.90
2018-07-11T06:18:49.895Z,73.54
2018-07-11T06:21:18.998Z,73.87
2018-07-11T06:23:47.673Z,71.71
2018-07-11T06:26:16.195Z,71.50
2018-07-11T06:28:45.557Z,70.82
2018-07-11T06:31:14.131Z,71.29
2018-07-11T06:33:42.775Z,71.07
2018-07-11T06:36:11.269Z,71.77
2018-07-11T06:38:39.792Z,71.05
2018-07-11T06:41:09.660Z,70.36
2018-07-11T06:43:39.193Z,70.50
2018-07-11T06:46:07.969Z,70.48
2018-07-11T06:48:37.657Z,69.85
2018-07-11T06:51:06.915Z,68.57
2018-07-11T06:53:37.140Z,68.93
2018-07-11T06:56:07.811Z,69.53
2018-07-11T06:58:36.421Z,68.26
2018-07-11T07:01:04.879Z,68.34
2018-07-11T07:03:33.491Z,66.65
2018-07-11T07:06:02.063Z,64.08
2018-07-11T07:08:31.261Z,65.08
2018-07-11T07:11:00.757Z,64.13
2018-07-11T07:13:29.341Z,65.15
2018-07-11T07:15:57.805Z,65.80
2018-07-11T07:18:26.380Z,65.74
2018-07-11T07:20:54.945Z,65.56
2018-07-11T07:23:23.447Z,64.89
2018-07-11T07:25:52.045Z,63.96
2018-07-11T07:28:20.522Z,64.11
2018-07-11T07:30:49.049Z,64.88
2018-07-11T07:33:17.775Z,64.54
2018-07-11T07:35:46.401Z,63.36
2018-07-11T07:38:15.371Z,63.76
2018-07-11T07:40:44.292Z,64.27
2018-07-11T07:43:12.886Z,64.61
2018-07-11T07:45:41.974Z,64.91
2018-07-11T07:48:10.668Z,64.85
2018-07-11T07:50:39.229Z,62.63
2018-07-11T07:53:07.798Z,61.91
2018-07-11T07:55:36.348Z,62.42
2018-07-11T07:58:04.860Z,63.36
2018-07-11T08:00:33.454Z,62.36
2018-07-11T08:03:02.098Z,62.18
2018-07-11T08:05:30.755Z,62.19
2018-07-11T08:08:00.889Z,62.05
2018-07-11T08:10:29.446Z,61.87
2018-07-11T08:12:58.117Z,61.31
2018-07-11T08:15:26.724Z,61.91
2018-07-11T08:17:55.409Z,62.26
2018-07-11T08:20:24.193Z,61.26
2018-07-11T08:23:13.545Z,60.79
2018-07-11T08:25:54.839Z,60.23
2018-07-11T08:28:41.929Z,61.00
2018-07-11T08:35:27.752Z,60.34
2018-07-11T08:41:07.258Z,60.91
2018-07-11T08:45:52.383Z,60.67
2018-07-11T08:51:10.469Z,59.25
2018-07-11T08:53:50.039Z,57.72
2018-07-11T08:56:27.795Z,57.69
2018-07-11T08:59:39.223Z,57.38
2018-07-11T09:03:16.683Z,56.93
2018-07-11T09:07:00.473Z,56.94
2018-07-11T09:11:43.607Z,55.19
2018-07-11T09:17:27.645Z,55.52
2018-07-11T09:20:12.357Z,55.66
2018-07-11T09:23:07.343Z,55.70
2018-07-11T09:25:35.891Z,55.61
2018-07-11T09:28:05.715Z,55.07
2018-07-11T09:30:34.579Z,54.66
2018-07-11T09:33:03.873Z,55.58
2018-07-11T09:35:32.584Z,55.76
2018-07-11T09:38:01.910Z,55.50
2018-07-11T09:40:30.563Z,56.29
2018-07-11T09:42:59.173Z,56.09
2018-07-11T09:45:27.843Z,56.30
2018-07-11T09:47:56.435Z,56.71
2018-07-11T09:50:25.189Z,56.11
2018-07-11T09:52:55.139Z,55.13
2018-07-11T09:55:23.904Z,55.11
2018-07-11T09:57:52.610Z,55.21
2018-07-11T10:00:26.377Z,53.79
2018-07-11T10:02:55.839Z,54.66
